Time;durP1;ratioP1;P1;durP2;ratioP2;P2;SDS_P1;SDS_P2;PMS_P1;PMS_P2;Temp;Humidity;BMP_temperature;BMP_pressure;BME280_temperature;BME280_humidity;BME280_pressure;Samples;Min_cycle;Max_cycle;Signal;HPM_P1;HPM_P2
2021/08/30 00:00:57;;;;;;;1.60;1.20;;;;;;;;;;5033233;28;20033;-71
2021/08/30 00:03:23;;;;;;;4.85;1.45;;;;;;;;;;5017963;28;20030;-71
2021/08/30 00:05:49;;;;;;;3.30;1.23;;;;;;;;;;5031853;28;20025;-71
2021/08/30 00:08:15;;;;;;;1.98;1.20;;;;;;;;;;5032162;28;20083;-71
2021/08/30 00:10:41;;;;;;;3.70;1.08;;;;;;;;;;5036001;28;20040;-71
2021/08/30 00:13:07;;;;;;;2.88;0.90;;;;;;;;;;5031627;28;20033;-71
2021/08/30 00:15:33;;;;;;;2.42;0.90;;;;;;;;;;5034380;28;20045;-71
2021/08/30 00:17:59;;;;;;;2.17;1.10;;;;;;;;;;5035246;28;20022;-71
2021/08/30 00:20:26;;;;;;;2.50;1.25;;;;;;;;;;5036024;28;20025;-71
2021/08/30 00:22:52;;;;;;;2.58;1.02;;;;;;;;;;5037944;28;20064;-70
2021/08/30 00:25:18;;;;;;;2.35;1.00;;;;;;;;;;5037233;28;20084;-70
2021/08/30 00:27:44;;;;;;;3.40;1.17;;;;;;;;;;5036986;28;20119;-71
2021/08/30 00:30:10;;;;;;;2.03;1.10;;;;;;;;;;5035722;28;20022;-71
2021/08/30 00:32:36;;;;;;;6.60;0.85;;;;;;;;;;5032612;28;20653;-71
2021/08/30 00:35:02;;;;;;;1.38;0.93;;;;;;;;;;5035438;28;20029;-70
2021/08/30 00:37:28;;;;;;;2.17;1.13;;;;;;;;;;5035080;28;20033;-71
2021/08/30 00:39:54;;;;;;;3.03;1.20;;;;;;;;;;5035565;28;20053;-71
2021/08/30 00:42:20;;;;;;;3.17;1.00;;;;;;;;;;5035818;28;20082;-70
2021/08/30 00:44:46;;;;;;;3.45;1.10;;;;;;;;;;5034727;28;20427;-70
2021/08/30 00:47:14;;;;;;;3.05;1.10;;;;;;;;;;5036304;28;20116;-70
2021/08/30 00:49:40;;;;;;;2.20;1.00;;;;;;;;;;5034865;28;20022;-70
2021/08/30 00:52:06;;;;;;;1.98;1.10;;;;;;;;;;5034325;28;20490;-71
2021/08/30 00:54:32;;;;;;;2.13;0.95;;;;;;;;;;5048693;28;20060;-70
2021/08/30 00:57:00;;;;;;;2.33;1.10;;;;;;;;;;5033821;28;20033;-70
2021/08/30 00:59:26;;;;;;;1.67;0.85;;;;;;;;;;5034670;28;20104;-70
2021/08/30 01:01:52;;;;;;;1.88;0.82;;;;;;;;;;5034063;28;20072;-71
2021/08/30 01:04:18;;;;;;;2.33;0.88;;;;;;;;;;5036329;28;20048;-70
2021/08/30 01:06:50;;;;;;;2.00;0.93;;;;;;;;;;5036492;28;20417;-70
2021/08/30 01:09:25;;;;;;;2.45;1.05;;;;;;;;;;5035118;28;20037;-70
2021/08/30 01:12:02;;;;;;;2.30;0.77;;;;;;;;;;5034213;28;20099;-70
2021/08/30 01:14:32;;;;;;;3.95;1.50;;;;;;;;;;5034759;28;20065;-70
2021/08/30 01:16:58;;;;;;;2.00;0.90;;;;;;;;;;5034735;28;20116;-70
2021/08/30 01:19:31;;;;;;;3.25;1.10;;;;;;;;;;5041258;28;20095;-70
2021/08/30 01:21:57;;;;;;;2.88;0.95;;;;;;;;;;5040657;28;20082;-70
2021/08/30 01:24:23;;;;;;;3.35;0.90;;;;;;;;;;5034057;28;20096;-70
2021/08/30 01:26:52;;;;;;;3.45;1.02;;;;;;;;;;5033331;28;20124;-70
2021/08/30 01:29:23;;;;;;;2.50;1.17;;;;;;;;;;5034470;28;20038;-70
2021/08/30 01:31:58;;;;;;;2.00;0.93;;;;;;;;;;5035681;28;20029;-70
2021/08/30 01:34:25;;;;;;;2.75;1.13;;;;;;;;;;5034363;28;20084;-70
2021/08/30 01:36:51;;;;;;;2.93;1.00;;;;;;;;;;5034461;28;20037;-70
2021/08/30 01:39:18;;;;;;;2.65;1.00;;;;;;;;;;5034009;28;20049;-70
2021/08/30 01:41:45;;;;;;;1.90;0.98;;;;;;;;;;5033676;28;20036;-70
2021/08/30 01:44:12;;;;;;;1.55;0.90;;;;;;;;;;5033959;28;20456;-70
2021/08/30 01:46:39;;;;;;;1.92;0.90;;;;;;;;;;5035691;28;20040;-70
2021/08/30 01:49:05;;;;;;;2.63;1.00;;;;;;;;;;5033795;28;20095;-70
2021/08/30 01:51:32;;;;;;;4.03;0.90;;;;;;;;;;5033867;28;20030;-70
2021/08/30 01:53:58;;;;;;;1.48;0.90;;;;;;;;;;5033197;28;20069;-70
2021/08/30 01:56:26;;;;;;;2.28;0.88;;;;;;;;;;5033881;28;20120;-69
2021/08/30 02:01:37;;;;;;;2.17;0.95;;;;;;;;;;5035190;28;20067;-69
2021/08/30 02:04:03;;;;;;;2.92;1.20;;;;;;;;;;5035046;28;20029;-70
2021/08/30 02:06:29;;;;;;;1.40;0.90;;;;;;;;;;5035474;28;20048;-70
2021/08/30 02:08:56;;;;;;;1.67;0.80;;;;;;;;;;5032838;28;20021;-69
2021/08/30 02:11:31;;;;;;;2.97;1.00;;;;;;;;;;5034087;28;20033;-70
2021/08/30 02:13:58;;;;;;;1.67;0.90;;;;;;;;;;5033393;28;20528;-70
2021/08/30 02:16:24;;;;;;;4.32;1.00;;;;;;;;;;5033618;28;20519;-70
2021/08/30 02:18:58;;;;;;;1.05;0.63;;;;;;;;;;5033392;28;20032;-70
2021/08/30 02:21:56;;;;;;;2.60;1.13;;;;;;;;;;5018066;28;20024;-70
2021/08/30 02:24:34;;;;;;;2.05;0.90;;;;;;;;;;5043656;28;20536;-70
2021/08/30 02:27:02;;;;;;;1.75;1.10;;;;;;;;;;5029019;28;20072;-70
2021/08/30 02:29:33;;;;;;;1.40;0.90;;;;;;;;;;5033968;28;20029;-69
2021/08/30 02:32:04;;;;;;;2.88;1.08;;;;;;;;;;5033367;28;20413;-70
2021/08/30 02:34:31;;;;;;;3.72;1.38;;;;;;;;;;5033201;28;20470;-70
2021/08/30 02:36:59;;;;;;;4.95;1.00;;;;;;;;;;5031968;28;20364;-70
2021/08/30 02:39:25;;;;;;;2.00;1.00;;;;;;;;;;5018913;28;20017;-70
2021/08/30 02:41:51;;;;;;;2.70;1.00;;;;;;;;;;5032479;28;20032;-70
2021/08/30 02:44:18;;;;;;;3.25;0.93;;;;;;;;;;5033083;28;20083;-70
2021/08/30 02:46:45;;;;;;;5.70;1.02;;;;;;;;;;5034561;28;20040;-70
2021/08/30 02:49:11;;;;;;;1.42;0.90;;;;;;;;;;5033765;28;20021;-70
2021/08/30 02:51:38;;;;;;;1.55;1.00;;;;;;;;;;5034217;28;20035;-70
2021/08/30 02:54:05;;;;;;;1.77;0.70;;;;;;;;;;5032465;28;20072;-70
2021/08/30 02:56:31;;;;;;;3.17;0.93;;;;;;;;;;5032796;28;20045;-70
2021/08/30 02:58:57;;;;;;;2.08;1.13;;;;;;;;;;5034342;28;20040;-70
2021/08/30 03:01:23;;;;;;;2.30;0.90;;;;;;;;;;5032702;28;20025;-70
2021/08/30 03:03:50;;;;;;;1.20;0.70;;;;;;;;;;5033961;28;20063;-69
2021/08/30 03:06:17;;;;;;;3.00;1.00;;;;;;;;;;5032745;28;20039;-70
2021/08/30 03:08:43;;;;;;;3.65;1.00;;;;;;;;;;5032219;28;20028;-70
2021/08/30 03:11:10;;;;;;;3.13;1.00;;;;;;;;;;5032414;28;20025;-70
2021/08/30 03:13:38;;;;;;;2.25;0.90;;;;;;;;;;5032276;28;20056;-70
2021/08/30 03:16:04;;;;;;;2.35;1.30;;;;;;;;;;5032674;28;20116;-70
2021/08/30 03:18:31;;;;;;;2.30;0.95;;;;;;;;;;5032728;28;20064;-70
2021/08/30 03:20:57;;;;;;;2.83;0.90;;;;;;;;;;5031213;28;20432;-70
2021/08/30 03:23:23;;;;;;;2.78;1.02;;;;;;;;;;5032235;28;20052;-70
2021/08/30 03:25:50;;;;;;;1.73;0.80;;;;;;;;;;5032327;28;20519;-70
2021/08/30 03:28:17;;;;;;;2.53;0.80;;;;;;;;;;5032484;28;20025;-70
2021/08/30 03:30:46;;;;;;;1.48;0.82;;;;;;;;;;5032566;28;20026;-70
2021/08/30 03:33:13;;;;;;;3.35;0.90;;;;;;;;;;5032742;28;20041;-70
2021/08/30 03:35:39;;;;;;;1.08;0.68;;;;;;;;;;5030538;28;20040;-71
2021/08/30 03:38:05;;;;;;;1.20;0.70;;;;;;;;;;5034189;28;20025;-64
2021/08/30 03:40:32;;;;;;;1.42;0.90;;;;;;;;;;5033301;28;20033;-64
2021/08/30 03:42:58;;;;;;;2.22;0.90;;;;;;;;;;5033272;28;20048;-64
2021/08/30 03:45:27;;;;;;;2.53;0.90;;;;;;;;;;5031836;28;20056;-64
2021/08/30 03:47:54;;;;;;;2.58;0.70;;;;;;;;;;5031049;28;20137;-64
2021/08/30 03:50:20;;;;;;;3.65;0.90;;;;;;;;;;5034910;28;20600;-64
2021/08/30 03:52:46;;;;;;;1.88;0.90;;;;;;;;;;5037305;28;20028;-64
2021/08/30 03:55:13;;;;;;;3.60;0.70;;;;;;;;;;5036811;28;20025;-64
2021/08/30 03:57:39;;;;;;;3.78;0.77;;;;;;;;;;5036937;28;20021;-64
2021/08/30 04:00:06;;;;;;;3.30;1.00;;;;;;;;;;5033270;28;20017;-65
2021/08/30 04:02:33;;;;;;;4.32;0.90;;;;;;;;;;5037496;28;20022;-69
2021/08/30 04:04:59;;;;;;;1.15;0.70;;;;;;;;;;5037140;28;20021;-69
2021/08/30 04:07:26;;;;;;;2.60;0.80;;;;;;;;;;5037204;28;20029;-69
2021/08/30 04:09:52;;;;;;;1.58;0.80;;;;;;;;;;5035738;28;20104;-69
2021/08/30 04:12:19;;;;;;;1.73;1.10;;;;;;;;;;5035921;28;20487;-69
2021/08/30 04:14:45;;;;;;;1.88;0.80;;;;;;;;;;5034275;28;20099;-69
2021/08/30 04:17:11;;;;;;;1.42;0.68;;;;;;;;;;5035411;28;20040;-69
2021/08/30 04:19:37;;;;;;;2.25;0.95;;;;;;;;;;5035941;28;20029;-68
2021/08/30 04:22:04;;;;;;;3.08;1.17;;;;;;;;;;5036775;28;20082;-69
2021/08/30 04:24:30;;;;;;;7.55;2.33;;;;;;;;;;5035875;28;20028;-69
2021/08/30 04:26:56;;;;;;;8.60;2.42;;;;;;;;;;5033068;28;20045;-69
2021/08/30 04:29:22;;;;;;;5.32;2.13;;;;;;;;;;5037219;28;20030;-69
2021/08/30 04:31:48;;;;;;;1.52;1.00;;;;;;;;;;5036636;28;20029;-69
2021/08/30 04:34:22;;;;;;;4.20;1.30;;;;;;;;;;5035165;28;20528;-69
2021/08/30 04:36:48;;;;;;;3.15;1.10;;;;;;;;;;5035489;28;20044;-69
2021/08/30 04:39:14;;;;;;;2.22;0.82;;;;;;;;;;5035244;28;20381;-69
2021/08/30 04:41:40;;;;;;;2.42;0.77;;;;;;;;;;5034274;28;20034;-69
2021/08/30 04:44:07;;;;;;;3.55;0.90;;;;;;;;;;5035437;28;20101;-69
2021/08/30 04:46:33;;;;;;;1.00;0.60;;;;;;;;;;5035162;28;20033;-69
2021/08/30 04:48:59;;;;;;;0.98;0.68;;;;;;;;;;5035102;28;20024;-69
2021/08/30 04:51:25;;;;;;;1.13;0.77;;;;;;;;;;5034849;28;20028;-69
2021/08/30 04:53:51;;;;;;;2.42;0.73;;;;;;;;;;5034569;28;20036;-69
2021/08/30 04:56:17;;;;;;;2.72;0.80;;;;;;;;;;5034583;28;20575;-69
2021/08/30 04:58:43;;;;;;;1.33;0.73;;;;;;;;;;5035104;28;20029;-69
2021/08/30 05:01:09;;;;;;;1.90;0.93;;;;;;;;;;5035912;28;20473;-69
2021/08/30 05:03:35;;;;;;;1.50;0.70;;;;;;;;;;5036172;28;20029;-69
2021/08/30 05:06:01;;;;;;;2.20;0.82;;;;;;;;;;5033887;28;20061;-69
2021/08/30 05:08:27;;;;;;;1.52;0.70;;;;;;;;;;5035120;28;20033;-69
2021/08/30 05:10:53;;;;;;;1.48;0.70;;;;;;;;;;5034597;28;20032;-69
2021/08/30 05:13:20;;;;;;;5.40;0.90;;;;;;;;;;5034319;28;20394;-69
2021/08/30 05:15:46;;;;;;;4.28;0.70;;;;;;;;;;5034367;28;20454;-73
2021/08/30 05:18:12;;;;;;;1.38;0.73;;;;;;;;;;5034680;28;20076;-73
2021/08/30 05:20:38;;;;;;;3.30;1.08;;;;;;;;;;5033803;28;20068;-72
2021/08/30 05:23:04;;;;;;;1.77;0.70;;;;;;;;;;5034022;28;20021;-73
2021/08/30 05:25:30;;;;;;;1.48;0.80;;;;;;;;;;5033978;28;20107;-76
2021/08/30 05:27:56;;;;;;;2.67;0.90;;;;;;;;;;5034642;28;20052;-77
2021/08/30 05:30:22;;;;;;;1.63;0.80;;;;;;;;;;5034588;28;20400;-77
2021/08/30 05:32:48;;;;;;;2.47;1.08;;;;;;;;;;5033459;28;20061;-77
2021/08/30 05:35:14;;;;;;;1.40;0.90;;;;;;;;;;5033987;28;20032;-77
2021/08/30 05:37:41;;;;;;;1.40;0.70;;;;;;;;;;5035222;28;20029;-77
2021/08/30 05:40:07;;;;;;;1.85;0.73;;;;;;;;;;5033609;28;20021;-77
2021/08/30 05:42:33;;;;;;;0.80;0.65;;;;;;;;;;5034178;28;20055;-76
2021/08/30 05:44:59;;;;;;;2.40;0.60;;;;;;;;;;5032533;28;20448;-77
2021/08/30 05:47:25;;;;;;;2.88;1.42;;;;;;;;;;5034140;28;20052;-78
2021/08/30 05:49:51;;;;;;;3.03;1.20;;;;;;;;;;5033476;28;20552;-77
2021/08/30 05:52:17;;;;;;;1.90;0.90;;;;;;;;;;5033900;28;20056;-77
2021/08/30 05:54:43;;;;;;;2.00;0.90;;;;;;;;;;5035300;28;20044;-78
2021/08/30 05:57:09;;;;;;;1.00;0.60;;;;;;;;;;5033856;28;20030;-78
2021/08/30 05:59:36;;;;;;;3.75;0.80;;;;;;;;;;5033050;28;20033;-78
2021/08/30 06:02:02;;;;;;;2.97;0.93;;;;;;;;;;5035005;28;20025;-78
2021/08/30 06:04:28;;;;;;;2.22;0.77;;;;;;;;;;5034780;28;20068;-78
2021/08/30 06:06:54;;;;;;;1.23;0.80;;;;;;;;;;5035314;28;20561;-78
2021/08/30 06:09:20;;;;;;;1.25;0.60;;;;;;;;;;5032892;28;20028;-78
2021/08/30 06:11:48;;;;;;;0.30;0.30;;;;;;;;;;5030785;28;20028;-79
2021/08/30 06:14:14;;;;;;;1.23;0.75;;;;;;;;;;5031466;28;20465;-79
2021/08/30 06:16:40;;;;;;;0.20;0.20;;;;;;;;;;5032690;28;20569;-79
2021/08/30 06:19:06;;;;;;;5.40;2.35;;;;;;;;;;5034021;28;20022;-79
2021/08/30 06:21:32;;;;;;;0.85;0.50;;;;;;;;;;5031855;28;20029;-80
2021/08/30 06:23:58;;;;;;;1.63;0.80;;;;;;;;;;5032175;28;20056;-80
2021/08/30 06:26:24;;;;;;;3.08;1.67;;;;;;;;;;5032799;28;20069;-80
2021/08/30 06:28:50;;;;;;;1.17;0.45;;;;;;;;;;5034262;28;20025;-80
2021/08/30 06:31:16;;;;;;;8.55;2.28;;;;;;;;;;5033061;28;20103;-79
2021/08/30 06:33:42;;;;;;;4.03;1.15;;;;;;;;;;5034120;28;20388;-78
2021/08/30 06:36:09;;;;;;;17.75;2.92;;;;;;;;;;5033066;28;20045;-79
2021/08/30 06:38:35;;;;;;;2.50;1.00;;;;;;;;;;5014052;28;20586;-78
2021/08/30 06:41:01;;;;;;;3.00;0.73;;;;;;;;;;5030181;28;20125;-77
2021/08/30 06:43:27;;;;;;;6.70;1.63;;;;;;;;;;5032430;28;20374;-78
2021/08/30 06:45:53;;;;;;;1.85;1.10;;;;;;;;;;5032905;28;20072;-77
2021/08/30 06:48:19;;;;;;;2.45;1.17;;;;;;;;;;5037422;28;20103;-78
2021/08/30 06:50:45;;;;;;;1.92;0.80;;;;;;;;;;5031864;28;20032;-78
2021/08/30 06:53:12;;;;;;;4.68;0.80;;;;;;;;;;5026875;28;20104;-78
2021/08/30 06:55:38;;;;;;;2.90;0.93;;;;;;;;;;5031923;28;20086;-78
2021/08/30 06:58:04;;;;;;;2.78;1.27;;;;;;;;;;5031171;28;20263;-78
2021/08/30 07:00:30;;;;;;;2.80;0.90;;;;;;;;;;5031794;28;20033;-78
2021/08/30 07:02:56;;;;;;;2.60;0.90;;;;;;;;;;5029796;28;20025;-78
2021/08/30 07:05:23;;;;;;;4.70;1.63;;;;;;;;;;5032289;28;20053;-78
2021/08/30 07:07:49;;;;;;;2.70;0.90;;;;;;;;;;5037672;28;20013;-78
2021/08/30 07:10:15;;;;;;;1.50;0.65;;;;;;;;;;5040826;28;20029;-78
2021/08/30 07:12:41;;;;;;;3.28;0.70;;;;;;;;;;5029906;28;20024;-78
2021/08/30 07:15:07;;;;;;;2.92;0.73;;;;;;;;;;5031540;28;20043;-78
2021/08/30 07:17:33;;;;;;;2.28;0.70;;;;;;;;;;5030542;28;20496;-78
2021/08/30 07:19:59;;;;;;;2.03;0.80;;;;;;;;;;5031862;28;20032;-78
2021/08/30 07:22:25;;;;;;;3.25;0.75;;;;;;;;;;5040780;28;20025;-78
2021/08/30 07:24:51;;;;;;;3.35;0.80;;;;;;;;;;5043761;28;20079;-78
2021/08/30 07:27:17;;;;;;;139.27;22.40;;;;;;;;;;5030590;28;20049;-78
2021/08/30 07:29:43;;;;;;;2.80;0.82;;;;;;;;;;5030885;28;20053;-78
2021/08/30 07:32:09;;;;;;;49.05;3.40;;;;;;;;;;5030906;28;20039;-78
2021/08/30 07:34:36;;;;;;;3.03;1.00;;;;;;;;;;5032351;28;20563;-78
2021/08/30 07:37:02;;;;;;;2.85;2.25;;;;;;;;;;5033461;28;20497;-77
2021/08/30 07:39:28;;;;;;;130.23;32.77;;;;;;;;;;5031245;28;20039;-77
2021/08/30 07:41:54;;;;;;;49.72;4.05;;;;;;;;;;5030199;28;20029;-77
2021/08/30 07:44:22;;;;;;;91.43;39.97;;;;;;;;;;5033379;28;20033;-77
2021/08/30 07:46:48;;;;;;;0.77;0.70;;;;;;;;;;5031738;28;20037;-77
2021/08/30 07:49:14;;;;;;;1.30;0.60;;;;;;;;;;5032560;28;20024;-78
2021/08/30 07:51:40;;;;;;;2.05;0.80;;;;;;;;;;5031600;28;20022;-77
2021/08/30 07:54:06;;;;;;;73.50;7.88;;;;;;;;;;5029754;28;20381;-77
2021/08/30 07:56:32;;;;;;;1.65;0.63;;;;;;;;;;5030854;28;20126;-77
2021/08/30 07:58:58;;;;;;;2.55;0.80;;;;;;;;;;5036910;28;20028;-70
2021/08/30 08:01:24;;;;;;;0.88;0.57;;;;;;;;;;5029607;28;20068;-71
2021/08/30 08:03:50;;;;;;;7.28;1.40;;;;;;;;;;5030497;28;20053;-69
2021/08/30 08:06:17;;;;;;;2.25;1.00;;;;;;;;;;5031419;28;20035;-69
2021/08/30 08:08:43;;;;;;;3.75;1.10;;;;;;;;;;5030083;28;20017;-69
2021/08/30 08:11:09;;;;;;;1.83;0.77;;;;;;;;;;5032650;28;20025;-70
2021/08/30 08:13:36;;;;;;;1.63;0.80;;;;;;;;;;5025027;28;20388;-70
2021/08/30 08:16:03;;;;;;;3.10;0.73;;;;;;;;;;5032797;28;20048;-70
2021/08/30 08:18:30;;;;;;;2.08;0.68;;;;;;;;;;5031454;28;20041;-70
2021/08/30 08:20:56;;;;;;;2.90;0.75;;;;;;;;;;5029294;28;20022;-70
2021/08/30 08:23:22;;;;;;;2.10;0.60;;;;;;;;;;5046627;28;20040;-71
2021/08/30 08:25:48;;;;;;;8.68;1.05;;;;;;;;;;5031923;28;20159;-70
2021/08/30 08:28:14;;;;;;;2.60;0.70;;;;;;;;;;5032421;28;20018;-71
2021/08/30 08:30:40;;;;;;;4.40;1.17;;;;;;;;;;5030767;28;20108;-72
2021/08/30 08:33:06;;;;;;;54.08;5.28;;;;;;;;;;5030955;28;20036;-71
2021/08/30 08:35:32;;;;;;;2.17;0.65;;;;;;;;;;5031121;28;20080;-72
2021/08/30 08:37:58;;;;;;;3.88;0.80;;;;;;;;;;5032743;28;20593;-69
2021/08/30 08:40:24;;;;;;;1.10;0.60;;;;;;;;;;5033661;28;20120;-69
2021/08/30 08:42:50;;;;;;;0.77;0.68;;;;;;;;;;5042561;28;20061;-69
2021/08/30 08:45:17;;;;;;;2.30;1.00;;;;;;;;;;5034355;28;20040;-69
2021/08/30 08:47:43;;;;;;;1.20;0.70;;;;;;;;;;5038113;28;20017;-69
2021/08/30 08:50:10;;;;;;;1.45;0.70;;;;;;;;;;5035579;28;20323;-71
2021/08/30 08:52:37;;;;;;;1.40;0.70;;;;;;;;;;5037339;28;20034;-71
2021/08/30 08:55:03;;;;;;;2.60;0.80;;;;;;;;;;5033922;28;20164;-70
2021/08/30 08:57:30;;;;;;;1.70;0.60;;;;;;;;;;5036294;28;20040;-70
2021/08/30 08:59:59;;;;;;;3.35;0.68;;;;;;;;;;5033366;28;20021;-71
2021/08/30 09:02:28;;;;;;;3.15;0.98;;;;;;;;;;5037264;28;20187;-70
2021/08/30 09:04:55;;;;;;;2.28;0.70;;;;;;;;;;5038038;28;20032;-69
2021/08/30 09:07:28;;;;;;;0.80;0.50;;;;;;;;;;5034690;28;20477;-69
2021/08/30 09:09:57;;;;;;;0.68;0.52;;;;;;;;;;5047345;28;20035;-69
2021/08/30 09:12:24;;;;;;;0.50;0.43;;;;;;;;;;5033360;28;20077;-69
2021/08/30 09:14:50;;;;;;;1.00;0.68;;;;;;;;;;5033348;28;20024;-69
2021/08/30 09:17:16;;;;;;;1.45;0.70;;;;;;;;;;5034467;28;20069;-69
2021/08/30 09:19:42;;;;;;;1.00;0.68;;;;;;;;;;5033863;28;20888;-69
2021/08/30 09:22:09;;;;;;;2.13;0.77;;;;;;;;;;5033590;28;20033;-69
2021/08/30 09:24:36;;;;;;;2.65;0.57;;;;;;;;;;5033781;28;20518;-69
2021/08/30 09:27:06;;;;;;;0.80;0.60;;;;;;;;;;5032814;28;20438;-68
2021/08/30 09:29:36;;;;;;;1.48;0.70;;;;;;;;;;5027484;28;20080;-69
2021/08/30 09:32:07;;;;;;;1.40;0.63;;;;;;;;;;5033813;28;20040;-69
2021/08/30 09:34:53;;;;;;;1.58;0.70;;;;;;;;;;5033849;28;20021;-69
2021/08/30 09:37:21;;;;;;;0.73;0.70;;;;;;;;;;5037942;28;20056;-69
2021/08/30 09:39:51;;;;;;;1.42;0.80;;;;;;;;;;5028027;28;21831;-68
2021/08/30 09:42:18;;;;;;;2.92;0.82;;;;;;;;;;5033461;28;20039;-71
2021/08/30 09:44:44;;;;;;;8.18;0.75;;;;;;;;;;5031782;28;20029;-71
2021/08/30 09:47:14;;;;;;;1.92;0.70;;;;;;;;;;5033047;28;20532;-71
2021/08/30 09:49:40;;;;;;;1.67;0.75;;;;;;;;;;5027537;28;20083;-71
2021/08/30 09:52:07;;;;;;;1.40;0.80;;;;;;;;;;5032565;28;20420;-71
2021/08/30 09:54:33;;;;;;;4.63;0.70;;;;;;;;;;5033455;28;20076;-71
2021/08/30 09:56:59;;;;;;;3.00;0.70;;;;;;;;;;5032594;28;20048;-71
2021/08/30 09:59:25;;;;;;;1.48;0.75;;;;;;;;;;5034102;28;20026;-72
2021/08/30 10:01:53;;;;;;;4.18;0.90;;;;;;;;;;5033205;28;20199;-71
2021/08/30 10:04:20;;;;;;;2.20;0.88;;;;;;;;;;5027974;28;20044;-62
2021/08/30 10:06:48;;;;;;;2.00;0.80;;;;;;;;;;5027789;28;20017;-61
2021/08/30 10:09:15;;;;;;;1.17;0.80;;;;;;;;;;5047132;28;20029;-62
2021/08/30 10:11:42;;;;;;;4.57;1.13;;;;;;;;;;5031906;28;20037;-65
2021/08/30 10:14:08;;;;;;;3.85;0.80;;;;;;;;;;5000418;28;20041;-59
2021/08/30 10:16:35;;;;;;;2.45;0.82;;;;;;;;;;5023618;28;20037;-58
2021/08/30 10:19:01;;;;;;;2.65;0.77;;;;;;;;;;5030967;28;20587;-59
2021/08/30 10:21:28;;;;;;;2.55;0.80;;;;;;;;;;5030911;28;20166;-59
2021/08/30 10:23:55;;;;;;;1.45;0.88;;;;;;;;;;5033802;28;20108;-60
2021/08/30 10:26:23;;;;;;;4.30;0.63;;;;;;;;;;5026703;28;20053;-59
2021/08/30 10:28:49;;;;;;;1.05;0.70;;;;;;;;;;5025433;28;20033;-60
2021/08/30 10:31:17;;;;;;;1.52;0.77;;;;;;;;;;5031183;28;20052;-60
2021/08/30 10:33:48;;;;;;;2.65;1.00;;;;;;;;;;5030518;28;20025;-61
2021/08/30 10:36:17;;;;;;;0.98;0.60;;;;;;;;;;5034015;28;20021;-61
2021/08/30 10:38:43;;;;;;;1.27;0.70;;;;;;;;;;5031458;28;20053;-63
2021/08/30 10:41:18;;;;;;;3.00;0.80;;;;;;;;;;5031423;28;20052;-60
2021/08/30 10:43:45;;;;;;;1.42;0.80;;;;;;;;;;5032053;28;20028;-61
2021/08/30 10:46:18;;;;;;;2.72;1.00;;;;;;;;;;5028492;28;20769;-62
2021/08/30 10:48:51;;;;;;;1.50;0.70;;;;;;;;;;5032361;28;20036;-60
2021/08/30 10:51:28;;;;;;;1.95;0.60;;;;;;;;;;5030480;28;20375;-60
2021/08/30 10:53:58;;;;;;;0.70;0.55;;;;;;;;;;5028208;28;20029;-61
2021/08/30 10:56:28;;;;;;;2.85;0.80;;;;;;;;;;5026443;28;20060;-61
2021/08/30 10:58:57;;;;;;;0.98;0.68;;;;;;;;;;5021812;28;20048;-61
2021/08/30 11:01:24;;;;;;;2.78;0.80;;;;;;;;;;5031264;28;20289;-60
2021/08/30 11:03:57;;;;;;;1.55;0.70;;;;;;;;;;5039315;28;20024;-62
2021/08/30 11:06:23;;;;;;;4.05;0.70;;;;;;;;;;5035852;28;20033;-61
2021/08/30 11:08:49;;;;;;;1.42;0.65;;;;;;;;;;5030894;28;20029;-60
2021/08/30 11:11:19;;;;;;;1.65;0.90;;;;;;;;;;5032625;28;20445;-59
2021/08/30 11:13:58;;;;;;;2.70;1.10;;;;;;;;;;5038371;28;20029;-60
2021/08/30 11:16:24;;;;;;;2.15;1.00;;;;;;;;;;5031822;28;20053;-62
2021/08/30 11:19:06;;;;;;;2.53;1.00;;;;;;;;;;5029306;28;20071;-60
2021/08/30 11:21:35;;;;;;;4.00;1.10;;;;;;;;;;5016902;28;20032;-60
2021/08/30 11:24:01;;;;;;;1.48;1.00;;;;;;;;;;5045305;28;20381;-60
2021/08/30 11:26:28;;;;;;;5.55;1.17;;;;;;;;;;5032782;28;20786;-61
2021/08/30 11:28:58;;;;;;;1.90;1.17;;;;;;;;;;5031481;28;20025;-61
2021/08/30 11:31:27;;;;;;;4.15;1.25;;;;;;;;;;5033335;28;20332;-62
2021/08/30 11:33:53;;;;;;;2.55;1.20;;;;;;;;;;5032038;28;20077;-62
2021/08/30 11:36:19;;;;;;;3.75;1.33;;;;;;;;;;5031251;28;20115;-62
2021/08/30 11:38:55;;;;;;;1.98;1.13;;;;;;;;;;5033334;28;20393;-62
2021/08/30 11:41:21;;;;;;;4.18;1.33;;;;;;;;;;5033181;28;20489;-62
2021/08/30 11:43:48;;;;;;;3.40;1.20;;;;;;;;;;5028964;28;20112;-62
2021/08/30 11:46:15;;;;;;;2.80;1.23;;;;;;;;;;5032500;28;20036;-62
2021/08/30 11:48:41;;;;;;;1.85;1.33;;;;;;;;;;5042344;28;20025;-62
2021/08/30 11:51:07;;;;;;;4.13;1.17;;;;;;;;;;5029181;28;20453;-62
2021/08/30 11:53:33;;;;;;;2.70;1.30;;;;;;;;;;5030898;28;20025;-62
2021/08/30 11:55:59;;;;;;;4.13;1.30;;;;;;;;;;5032846;28;20041;-62
2021/08/30 11:58:34;;;;;;;4.32;1.40;;;;;;;;;;5035768;28;20473;-64
2021/08/30 12:01:04;;;;;;;3.72;1.30;;;;;;;;;;5031841;28;20111;-63
2021/08/30 12:03:40;;;;;;;4.95;1.63;;;;;;;;;;5027411;28;20154;-62
2021/08/30 12:06:14;;;;;;;1.90;1.27;;;;;;;;;;5031066;28;20362;-62
2021/08/30 12:08:50;;;;;;;3.55;1.50;;;;;;;;;;5031934;28;20044;-63
2021/08/30 12:11:16;;;;;;;3.65;1.50;;;;;;;;;;5033911;28;20037;-63
2021/08/30 12:16:27;;;;;;;57.90;8.43;;;;;;;;;;5035246;28;20132;-63
2021/08/30 12:18:54;;;;;;;0.50;0.50;;;;;;;;;;5024424;28;20021;-62
2021/08/30 12:21:33;;;;;;;2.70;1.60;;;;;;;;;;5034759;28;20037;-63
2021/08/30 12:24:00;;;;;;;3.28;1.30;;;;;;;;;;5036860;28;20029;-62
2021/08/30 12:26:26;;;;;;;2.72;1.38;;;;;;;;;;5034606;28;20111;-62
2021/08/30 12:28:56;;;;;;;2.28;1.52;;;;;;;;;;5034176;28;20029;-62
2021/08/30 12:31:30;;;;;;;4.70;1.60;;;;;;;;;;5032585;28;20025;-62
2021/08/30 12:34:04;;;;;;;2.97;1.40;;;;;;;;;;5043085;28;20032;-62
2021/08/30 12:36:30;;;;;;;3.50;1.60;;;;;;;;;;5029525;28;20726;-62
2021/08/30 12:38:56;;;;;;;8.55;1.40;;;;;;;;;;5031446;28;20096;-62
2021/08/30 12:41:23;;;;;;;3.20;1.40;;;;;;;;;;5033245;28;20064;-62
2021/08/30 12:43:50;;;;;;;3.05;1.20;;;;;;;;;;5032120;28;20083;-62
2021/08/30 12:46:16;;;;;;;3.65;1.50;;;;;;;;;;5034204;28;20033;-61
2021/08/30 12:48:42;;;;;;;3.97;1.60;;;;;;;;;;5028372;28;20108;-62
2021/08/30 12:51:08;;;;;;;2.83;1.30;;;;;;;;;;5033082;28;20606;-62
2021/08/30 12:53:35;;;;;;;3.78;1.50;;;;;;;;;;5032137;28;20018;-63
2021/08/30 12:56:01;;;;;;;2.58;1.30;;;;;;;;;;5035641;28;20057;-64
2021/08/30 12:58:27;;;;;;;4.65;1.50;;;;;;;;;;5035161;28;20029;-61
2021/08/30 13:00:53;;;;;;;2.00;1.30;;;;;;;;;;5034208;28;20025;-61
2021/08/30 13:03:19;;;;;;;2.47;1.30;;;;;;;;;;5039831;28;20547;-61
2021/08/30 13:05:45;;;;;;;3.70;1.45;;;;;;;;;;5034510;28;20071;-61
2021/08/30 13:08:12;;;;;;;4.90;1.58;;;;;;;;;;5036354;28;20029;-61
2021/08/30 13:10:39;;;;;;;3.38;1.55;;;;;;;;;;5028137;28;20124;-61
2021/08/30 13:13:07;;;;;;;3.88;1.60;;;;;;;;;;5029380;28;20021;-61
2021/08/30 13:15:33;;;;;;;7.63;1.63;;;;;;;;;;5036731;28;20033;-61
2021/08/30 13:17:59;;;;;;;6.95;1.83;;;;;;;;;;5033679;28;20029;-61
2021/08/30 13:20:25;;;;;;;3.88;1.90;;;;;;;;;;5033120;28;20051;-61
2021/08/30 13:22:52;;;;;;;3.05;1.50;;;;;;;;;;5028470;28;20452;-61
2021/08/30 13:25:20;;;;;;;3.05;1.70;;;;;;;;;;5034824;28;20487;-63
2021/08/30 13:27:48;;;;;;;3.90;1.77;;;;;;;;;;5033392;28;20550;-62
2021/08/30 13:30:14;;;;;;;4.70;1.55;;;;;;;;;;5033409;28;20025;-63
2021/08/30 13:32:41;;;;;;;4.85;1.45;;;;;;;;;;5031860;28;20163;-63
2021/08/30 13:35:08;;;;;;;3.30;1.30;;;;;;;;;;5031530;28;20116;-62
2021/08/30 13:37:34;;;;;;;2.13;1.35;;;;;;;;;;5037419;28;20053;-62
2021/08/30 13:40:00;;;;;;;3.50;1.30;;;;;;;;;;5033067;28;20029;-63
2021/08/30 13:42:26;;;;;;;2.67;1.50;;;;;;;;;;5030249;28;20084;-63
2021/08/30 13:44:52;;;;;;;2.75;1.48;;;;;;;;;;5036377;28;20027;-63
2021/08/30 13:47:18;;;;;;;3.38;1.25;;;;;;;;;;5033939;28;20040;-62
2021/08/30 13:49:44;;;;;;;2.67;1.33;;;;;;;;;;5038040;28;20112;-62
2021/08/30 13:52:10;;;;;;;3.22;1.48;;;;;;;;;;5033435;28;20030;-62
2021/08/30 13:54:36;;;;;;;3.33;1.50;;;;;;;;;;5033920;28;20031;-62
2021/08/30 13:57:04;;;;;;;4.13;1.73;;;;;;;;;;5032665;28;20115;-62
2021/08/30 13:59:30;;;;;;;2.17;1.30;;;;;;;;;;5032666;28;20360;-62
2021/08/30 14:01:56;;;;;;;2.47;1.23;;;;;;;;;;5042498;28;20068;-62
2021/08/30 14:04:22;;;;;;;2.65;1.40;;;;;;;;;;5040167;28;20060;-62
2021/08/30 14:06:48;;;;;;;2.65;1.20;;;;;;;;;;5037225;28;20315;-62
2021/08/30 14:09:14;;;;;;;8.38;2.25;;;;;;;;;;5033058;28;20497;-62
2021/08/30 14:11:40;;;;;;;3.75;1.90;;;;;;;;;;5031309;28;20057;-62
2021/08/30 14:14:06;;;;;;;2.67;1.58;;;;;;;;;;5029944;28;20053;-63
2021/08/30 14:16:32;;;;;;;3.45;1.30;;;;;;;;;;5032742;28;20038;-62
2021/08/30 14:18:58;;;;;;;2.85;1.50;;;;;;;;;;5033045;28;20241;-62
2021/08/30 14:21:24;;;;;;;6.13;2.60;;;;;;;;;;5031891;28;20083;-63
2021/08/30 14:23:50;;;;;;;4.28;1.50;;;;;;;;;;5032007;28;20465;-63
2021/08/30 14:26:16;;;;;;;3.33;1.40;;;;;;;;;;5032173;28;20053;-62
2021/08/30 14:28:42;;;;;;;3.70;1.55;;;;;;;;;;5032529;28;20032;-62
2021/08/30 14:31:08;;;;;;;2.00;1.00;;;;;;;;;;5032547;28;20025;-62
2021/08/30 14:33:34;;;;;;;7.55;1.60;;;;;;;;;;5038492;28;20025;-63
2021/08/30 14:36:00;;;;;;;3.88;1.33;;;;;;;;;;5031275;28;20055;-63
2021/08/30 14:38:26;;;;;;;3.60;1.50;;;;;;;;;;5035485;28;20028;-63
2021/08/30 14:40:52;;;;;;;5.22;1.52;;;;;;;;;;5039885;28;20021;-62
2021/08/30 14:43:18;;;;;;;3.55;2.10;;;;;;;;;;5040261;28;20025;-62
2021/08/30 14:45:44;;;;;;;4.00;2.00;;;;;;;;;;5033704;28;20091;-63
2021/08/30 14:48:10;;;;;;;3.67;1.55;;;;;;;;;;5032162;28;20067;-62